createdAt,value
2022-09-06T00:00:25.945Z,101483.44
2022-09-06T00:02:56.316Z,101465.75
2022-09-06T00:05:23.498Z,101475.53
2022-09-06T00:07:50.495Z,101470.50
2022-09-06T00:10:17.853Z,101470.63
2022-09-06T00:12:44.920Z,101474.31
2022-09-06T00:15:12.025Z,101471.81
2022-09-06T00:17:39.336Z,101477.25
2022-09-06T00:20:09.308Z,101471.19
2022-09-06T00:22:37.423Z,101464.16
2022-09-06T00:25:06.510Z,101465.06
2022-09-06T00:27:34.526Z,101467.69
2022-09-06T00:30:01.581Z,101466.97
2022-09-06T00:32:28.887Z,101461.81
2022-09-06T00:34:55.920Z,101466.25
2022-09-06T00:37:22.909Z,101465.44
2022-09-06T00:39:50.226Z,101467.22
2022-09-06T00:42:17.285Z,101464.59
2022-09-06T00:44:44.296Z,101467.31
2022-09-06T00:47:11.804Z,101468.28
2022-09-06T00:49:44.535Z,101470.97
2022-09-06T00:52:15.431Z,101469.25
2022-09-06T00:54:43.366Z,101462.16
2022-09-06T00:57:11.426Z,101464.88
2022-09-06T00:59:40.542Z,101476.47
2022-09-06T01:02:09.510Z,101471.41
2022-09-06T01:04:39.949Z,101483.09
2022-09-06T01:07:32.187Z,101482.31
2022-09-06T01:10:20.116Z,101482.47
2022-09-06T01:13:08.574Z,101478.13
2022-09-06T01:15:57.234Z,101475.50
2022-09-06T01:18:40.103Z,101470.38
2022-09-06T01:21:22.455Z,101480.16
2022-09-06T01:24:25.446Z,101467.75
2022-09-06T01:27:14.083Z,101473.78
2022-09-06T01:29:47.255Z,101477.31
2022-09-06T01:32:31.361Z,101477.38
2022-09-06T01:35:23.570Z,101473.94
2022-09-06T01:37:51.321Z,101479.34
2022-09-06T01:40:18.566Z,101483.88
2022-09-06T01:42:49.311Z,101483.00
2022-09-06T01:45:25.693Z,101484.69
2022-09-06T01:48:29.207Z,101483.78
2022-09-06T01:51:31.675Z,101482.06
2022-09-06T01:54:33.283Z,101476.00
2022-09-06T01:57:17.889Z,101483.28
2022-09-06T02:00:08.727Z,101485.97
2022-09-06T02:02:54.888Z,101486.88
2022-09-06T02:05:35.103Z,101486.94
2022-09-06T02:08:10.938Z,101483.41
2022-09-06T02:10:45.576Z,101473.59
2022-09-06T02:15:51.425Z,101478.00
2022-09-06T02:18:28.428Z,101482.41
2022-09-06T02:20:58.896Z,101487.78
2022-09-06T02:23:31.626Z,101480.72
2022-09-06T02:26:11.128Z,101488.84
2022-09-06T02:28:38.945Z,101489.81
2022-09-06T02:31:13.413Z,101493.44
2022-09-06T02:33:44.102Z,101492.50
2022-09-06T02:36:11.332Z,101494.28
2022-09-06T02:38:41.030Z,101494.28
2022-09-06T02:41:09.385Z,101488.03
2022-09-06T02:43:36.461Z,101475.69
2022-09-06T02:46:03.904Z,101477.47
2022-09-06T02:48:34.114Z,101485.50
2022-09-06T02:54:02.336Z,101489.19
2022-09-06T02:56:29.652Z,101490.16
2022-09-06T02:58:56.986Z,101492.91
2022-09-06T03:01:24.204Z,101489.41
2022-09-06T03:03:51.626Z,101485.84
2022-09-06T03:06:19.596Z,101492.13
2022-09-06T03:08:47.358Z,101493.97
2022-09-06T03:11:14.955Z,101494.84
2022-09-06T03:13:41.950Z,101498.31
2022-09-06T03:16:09.272Z,101492.84
2022-09-06T03:18:37.273Z,101494.47
2022-09-06T03:21:04.370Z,101497.91
2022-09-06T03:23:31.439Z,101499.69
2022-09-06T03:26:00.352Z,101501.41
2022-09-06T03:28:28.034Z,101511.94
2022-09-06T03:30:55.223Z,101505.75
2022-09-06T03:33:22.854Z,101508.50
2022-09-06T03:35:52.432Z,101512.06
2022-09-06T03:38:19.576Z,101515.53
2022-09-06T03:40:50.591Z,101520.66
2022-09-06T03:43:18.613Z,101533.81
2022-09-06T03:45:50.555Z,101524.78
2022-09-06T03:48:21.017Z,101530.84
2022-09-06T03:50:50.104Z,101530.69
2022-09-06T03:53:17.532Z,101527.84
2022-09-06T03:55:48.466Z,101524.00
2022-09-06T03:58:17.069Z,101521.16
2022-09-06T04:00:44.972Z,101521.00
2022-09-06T04:03:16.549Z,101516.34
2022-09-06T04:05:46.923Z,101517.13
2022-09-06T04:08:14.265Z,101523.28
2022-09-06T04:10:41.384Z,101522.38
2022-09-06T04:13:11.010Z,101529.41
2022-09-06T04:15:39.843Z,101525.72
2022-09-06T04:18:13.662Z,101523.84
2022-09-06T04:20:50.350Z,101533.47
2022-09-06T04:23:18.134Z,101532.47
2022-09-06T04:25:48.220Z,101527.91
2022-09-06T04:28:18.500Z,101534.69
2022-09-06T04:31:04.035Z,101525.84
2022-09-06T04:33:39.410Z,101530.44
2022-09-06T04:36:09.604Z,101519.56
2022-09-06T04:38:44.782Z,101532.44
2022-09-06T04:44:11.865Z,101530.38
2022-09-06T04:47:23.433Z,101524.09
2022-09-06T04:52:37.085Z,101523.09
2022-09-06T04:55:06.434Z,101520.13
2022-09-06T04:57:34.822Z,101526.03
2022-09-06T05:00:06.855Z,101513.94
2022-09-06T05:02:48.816Z,101528.56
2022-09-06T05:05:16.765Z,101522.72
2022-09-06T05:07:44.038Z,101528.78
2022-09-06T05:10:12.516Z,101526.88
2022-09-06T05:12:43.578Z,101533.63
2022-09-06T05:15:11.524Z,101529.69
2022-09-06T05:17:38.747Z,101523.06
2022-09-06T05:20:06.792Z,101521.81
2022-09-06T05:22:33.900Z,101521.59
2022-09-06T05:25:00.947Z,101521.38
2022-09-06T05:27:33.235Z,101522.09
2022-09-06T05:30:01.923Z,101526.47
2022-09-06T05:32:30.974Z,101528.19
2022-09-06T05:35:00.670Z,101520.88
2022-09-06T05:37:28.329Z,101523.50
2022-09-06T05:39:56.598Z,101524.94
2022-09-06T05:45:09.058Z,101522.59
2022-09-06T05:47:38.678Z,101518.63
2022-09-06T05:50:07.102Z,101517.19
2022-09-06T05:52:35.467Z,101522.88
2022-09-06T05:58:03.504Z,101523.06
2022-09-06T06:00:32.606Z,101520.72
2022-09-06T06:02:59.642Z,101525.75
2022-09-06T06:05:32.667Z,101511.13
2022-09-06T06:08:05.532Z,101519.38
2022-09-06T06:10:38.348Z,101519.34
2022-09-06T06:13:06.001Z,101516.78
2022-09-06T06:15:34.127Z,101520.47
2022-09-06T06:18:08.413Z,101510.81
2022-09-06T06:20:36.587Z,101517.91
2022-09-06T06:23:04.541Z,101521.66
2022-09-06T06:25:49.214Z,101521.88
2022-09-06T06:28:17.319Z,101515.06
2022-09-06T06:30:44.643Z,101513.41
2022-09-06T06:39:12.979Z,101519.06
2022-09-06T06:41:43.990Z,101514.56
2022-09-06T06:44:11.174Z,101518.81
2022-09-06T06:46:38.987Z,101520.66
2022-09-06T06:49:09.558Z,101515.91
2022-09-06T06:51:42.020Z,101519.84
2022-09-06T06:54:20.307Z,101522.38
2022-09-06T06:56:47.527Z,101527.25
2022-09-06T06:59:15.700Z,101525.91
2022-09-06T07:01:45.043Z,101529.47
2022-09-06T07:04:25.791Z,101530.09
2022-09-06T07:07:35.431Z,101539.91
2022-09-06T07:12:52.955Z,101541.09
2022-09-06T07:15:20.392Z,101535.19
2022-09-06T07:17:51.241Z,101530.81
2022-09-06T07:20:18.561Z,101539.66
2022-09-06T07:22:47.664Z,101535.06
2022-09-06T07:28:08.310Z,101538.66
2022-09-06T07:30:37.565Z,101535.53
2022-09-06T07:33:19.455Z,101524.94
2022-09-06T07:36:04.241Z,101528.09
2022-09-06T07:38:32.180Z,101534.56
2022-09-06T07:41:02.108Z,101528.31
2022-09-06T07:43:36.849Z,101525.63
2022-09-06T07:46:11.217Z,101527.91
2022-09-06T07:48:43.966Z,101524.53
2022-09-06T07:51:14.219Z,101535.53
2022-09-06T07:54:31.048Z,101535.63
2022-09-06T07:57:03.840Z,101531.81
2022-09-06T07:59:30.879Z,101534.59
2022-09-06T08:01:58.046Z,101527.66
2022-09-06T08:04:25.694Z,101530.31
2022-09-06T08:09:41.882Z,101528.25
2022-09-06T08:12:09.163Z,101521.31
2022-09-06T08:14:36.490Z,101531.72
2022-09-06T08:17:06.040Z,101523.56
2022-09-06T08:19:34.541Z,101525.53
2022-09-06T08:22:01.658Z,101537.13
2022-09-06T08:24:32.995Z,101521.06
2022-09-06T08:27:00.124Z,101521.41
2022-09-06T08:29:27.758Z,101524.34
2022-09-06T08:31:55.410Z,101520.56
2022-09-06T08:34:22.542Z,101521.88
2022-09-06T08:36:49.894Z,101529.53
2022-09-06T08:39:21.178Z,101526.88
2022-09-06T08:41:56.372Z,101524.44
2022-09-06T08:50:08.907Z,101512.75
2022-09-06T08:52:45.373Z,101513.47
2022-09-06T08:55:57.385Z,101505.00
2022-09-06T08:58:46.998Z,101504.28
2022-09-06T09:01:20.407Z,101505.50
2022-09-06T09:04:17.898Z,101489.84
2022-09-06T09:10:15.201Z,101496.75
2022-09-06T09:12:52.070Z,101490.75
2022-09-06T09:15:21.380Z,101495.16
2022-09-06T09:18:01.545Z,101497.88
2022-09-06T09:20:32.254Z,101493.97
2022-09-06T09:23:04.497Z,101490.31
2022-09-06T09:28:35.994Z,101483.25
2022-09-06T09:31:06.793Z,101493.78
2022-09-06T09:33:39.597Z,101493.25
2022-09-06T09:39:42.700Z,101485.47
2022-09-06T09:42:11.625Z,101490.97
2022-09-06T09:44:47.712Z,101484.69
2022-09-06T09:47:31.664Z,101483.69
2022-09-06T09:50:00.040Z,101474.22
2022-09-06T09:52:33.461Z,101478.31
2022-09-06T09:55:07.316Z,101473.53
2022-09-06T09:57:46.787Z,101474.13
2022-09-06T10:00:14.698Z,101476.16
2022-09-06T10:02:43.383Z,101470.41
2022-09-06T10:05:17.110Z,101476.84
2022-09-06T10:07:55.056Z,101476.44
2022-09-06T10:10:26.662Z,101469.34
2022-09-06T10:13:24.917Z,101476.56
2022-09-06T10:16:41.296Z,101488.25
2022-09-06T10:19:48.500Z,101479.13
2022-09-06T10:22:33.308Z,101479.22
2022-09-06T10:25:38.028Z,101480.97
2022-09-06T10:28:29.675Z,101489.75
2022-09-06T10:31:10.781Z,101483.19
2022-09-06T10:34:18.372Z,101477.00
2022-09-06T10:36:56.760Z,101481.13
2022-09-06T10:39:44.134Z,101479.38
2022-09-06T10:42:23.601Z,101487.00
2022-09-06T10:45:15.942Z,101489.38
2022-09-06T10:48:25.065Z,101491.56
2022-09-06T10:50:57.877Z,101494.03
2022-09-06T10:53:43.509Z,101485.25
2022-09-06T10:56:17.819Z,101477.97
2022-09-06T11:02:03.621Z,101476.94
2022-09-06T11:07:38.700Z,101471.34
2022-09-06T11:10:29.164Z,101467.91
2022-09-06T11:13:23.393Z,101470.56
2022-09-06T11:16:03.154Z,101472.69
2022-09-06T11:21:50.946Z,101468.50
2022-09-06T11:24:45.859Z,101467.28
2022-09-06T11:27:31.909Z,101471.09
2022-09-06T11:30:06.765Z,101462.22
2022-09-06T11:32:40.367Z,101449.50
2022-09-06T11:35:11.340Z,101464.59
2022-09-06T11:37:50.308Z,101452.94
2022-09-06T11:40:27.717Z,101456.34
2022-09-06T11:43:02.575Z,101448.13
2022-09-06T11:45:54.555Z,101442.13
2022-09-06T11:48:34.533Z,101445.47
2022-09-06T11:51:03.452Z,101447.19
2022-09-06T11:54:00.632Z,101434.88
2022-09-06T11:57:00.097Z,101427.63
2022-09-06T12:02:47.422Z,101426.03
2022-09-06T12:05:23.903Z,101422.88
2022-09-06T12:08:32.796Z,101423.31
2022-09-06T12:11:36.338Z,101416.94
2022-09-06T12:14:10.657Z,101413.81
2022-09-06T12:16:57.671Z,101415.78
2022-09-06T12:19:51.898Z,101404.81
2022-09-06T12:22:31.476Z,101413.09
2022-09-06T12:25:05.152Z,101410.47
2022-09-06T12:28:10.013Z,101410.44
2022-09-06T12:30:38.799Z,101397.91
2022-09-06T12:33:40.272Z,101387.78
2022-09-06T12:36:18.538Z,101392.69
2022-09-06T12:38:59.188Z,101388.09
2022-09-06T12:41:40.511Z,101382.81
2022-09-06T12:44:15.106Z,101380.97
2022-09-06T12:46:51.715Z,101381.28
2022-09-06T12:49:23.595Z,101387.03
2022-09-06T12:51:50.714Z,101374.25
2022-09-06T12:54:20.558Z,101368.00
2022-09-06T12:56:50.946Z,101372.94
2022-09-06T12:59:25.214Z,101361.47
2022-09-06T13:02:29.345Z,101375.53
2022-09-06T13:05:03.066Z,101373.19
2022-09-06T13:07:32.714Z,101367.03
2022-09-06T13:10:00.175Z,101376.38
2022-09-06T13:12:29.786Z,101365.50
2022-09-06T13:15:00.447Z,101366.34
2022-09-06T13:17:32.680Z,101365.19
2022-09-06T13:20:18.395Z,101362.69
2022-09-06T13:22:50.182Z,101351.78
2022-09-06T13:25:21.786Z,101353.63
2022-09-06T13:27:51.416Z,101356.66
2022-09-06T13:30:35.499Z,101354.16
2022-09-06T13:33:06.413Z,101354.69
2022-09-06T13:39:04.311Z,101356.44
2022-09-06T13:41:37.127Z,101352.63
2022-09-06T13:44:19.900Z,101354.22
2022-09-06T13:46:51.894Z,101345.03
2022-09-06T13:49:19.127Z,101351.53
2022-09-06T13:51:46.281Z,101336.63
2022-09-06T13:54:14.763Z,101338.56
2022-09-06T13:56:44.720Z,101335.63
2022-09-06T13:59:12.425Z,101333.47
2022-09-06T14:01:41.558Z,101337.81
2022-09-06T14:04:16.072Z,101328.44
2022-09-06T14:06:43.434Z,101331.38
2022-09-06T14:09:10.744Z,101332.16
2022-09-06T14:11:38.092Z,101323.72
2022-09-06T14:14:05.983Z,101323.50
2022-09-06T14:16:34.215Z,101324.06
2022-09-06T14:19:01.556Z,101319.84
2022-09-06T14:21:28.976Z,101312.41
2022-09-06T14:23:58.069Z,101313.34
2022-09-06T14:26:28.384Z,101319.84
2022-09-06T14:28:56.334Z,101317.78
2022-09-06T14:31:26.775Z,101307.72
2022-09-06T14:33:55.824Z,101307.28
2022-09-06T14:36:26.497Z,101312.44
2022-09-06T14:38:56.227Z,101303.59
2022-09-06T14:41:33.171Z,101293.84
2022-09-06T14:44:00.977Z,101300.56
2022-09-06T14:46:32.425Z,101296.16
2022-09-06T14:49:02.004Z,101298.00
2022-09-06T14:51:33.274Z,101298.00
2022-09-06T14:54:06.244Z,101292.91
2022-09-06T14:56:36.782Z,101294.66
2022-09-06T14:59:03.958Z,101295.59
2022-09-06T15:01:38.077Z,101299.94
2022-09-06T15:04:14.285Z,101292.38
2022-09-06T15:06:47.271Z,101298.63
2022-09-06T15:09:17.696Z,101292.94
2022-09-06T15:11:51.810Z,101293.88
2022-09-06T15:14:27.335Z,101300.16
2022-09-06T15:16:59.888Z,101292.91
2022-09-06T15:19:29.227Z,101287.38
2022-09-06T15:21:57.415Z,101291.47
2022-09-06T15:27:07.444Z,101297.34
2022-09-06T15:29:34.520Z,101292.16
2022-09-06T15:32:01.672Z,101293.53
2022-09-06T15:34:29.320Z,101286.84
2022-09-06T15:36:57.665Z,101283.53
2022-09-06T15:39:25.255Z,101291.94
2022-09-06T15:41:52.811Z,101284.91
2022-09-06T15:44:21.711Z,101289.75
2022-09-06T15:46:51.757Z,101281.97
2022-09-06T15:49:27.500Z,101290.34
2022-09-06T15:51:56.352Z,101297.66
2022-09-06T15:54:49.729Z,101294.53
2022-09-06T15:57:31.970Z,101295.00
2022-09-06T16:00:03.608Z,101300.03
2022-09-06T16:02:31.155Z,101297.06
2022-09-06T16:05:00.570Z,101301.88
2022-09-06T16:07:28.275Z,101291.03
2022-09-06T16:09:55.267Z,101289.97
2022-09-06T16:12:22.366Z,101303.00
2022-09-06T16:17:34.812Z,101300.19
2022-09-06T16:20:02.795Z,101291.16
2022-09-06T16:22:31.859Z,101306.22
2022-09-06T16:25:00.036Z,101298.75
2022-09-06T16:27:27.571Z,101296.81
2022-09-06T16:29:55.346Z,101304.53
2022-09-06T16:32:24.546Z,101298.22
2022-09-06T16:34:52.624Z,101306.16
2022-09-06T16:37:19.835Z,101309.44
2022-09-06T16:39:51.851Z,101304.75
2022-09-06T16:42:19.163Z,101303.78
2022-09-06T16:44:46.225Z,101308.72
2022-09-06T16:47:16.797Z,101309.25
2022-09-06T16:49:44.489Z,101315.03
2022-09-06T16:52:14.612Z,101320.03
2022-09-06T16:54:42.973Z,101319.50
2022-09-06T16:57:18.447Z,101328.84
2022-09-06T16:59:45.687Z,101320.53
2022-09-06T17:02:15.165Z,101322.97
2022-09-06T17:04:42.452Z,101323.53
2022-09-06T17:07:13.989Z,101336.88
2022-09-06T17:09:41.867Z,101327.16
2022-09-06T17:12:09.459Z,101335.19
2022-09-06T17:14:37.096Z,101336.22
2022-09-06T17:17:11.923Z,101343.50
2022-09-06T17:19:55.653Z,101348.38
2022-09-06T17:22:26.008Z,101339.88
2022-09-06T17:24:53.502Z,101351.81
2022-09-06T17:27:20.588Z,101349.63
2022-09-06T17:29:48.401Z,101348.19
2022-09-06T17:32:16.777Z,101358.19
2022-09-06T17:34:44.288Z,101361.34
2022-09-06T17:37:16.012Z,101362.63
2022-09-06T17:39:43.372Z,101364.78
2022-09-06T17:42:10.576Z,101371.44
2022-09-06T17:44:38.048Z,101379.06
2022-09-06T17:47:13.775Z,101378.66
2022-09-06T17:49:44.127Z,101399.72
2022-09-06T17:52:12.360Z,101396.66
2022-09-06T17:54:39.704Z,101403.69
2022-09-06T17:57:07.418Z,101413.31
2022-09-06T17:59:35.930Z,101411.06
2022-09-06T18:02:05.031Z,101404.78
2022-09-06T18:04:33.829Z,101413.94
2022-09-06T18:07:27.671Z,101427.84
2022-09-06T18:09:55.009Z,101419.34
2022-09-06T18:12:22.684Z,101423.97
2022-09-06T18:14:50.486Z,101422.47
2022-09-06T18:17:17.825Z,101428.97
2022-09-06T18:19:45.223Z,101432.06
2022-09-06T18:22:12.426Z,101435.03
2022-09-06T18:24:40.142Z,101429.00
2022-09-06T18:27:07.177Z,101428.38
2022-09-06T18:29:34.497Z,101439.31
2022-09-06T18:34:54.642Z,101436.34
2022-09-06T18:37:22.308Z,101438.28
2022-09-06T18:39:49.478Z,101436.63
2022-09-06T18:42:16.871Z,101439.34
2022-09-06T18:44:44.492Z,101432.44
2022-09-06T18:47:27.136Z,101437.09
2022-09-06T18:50:00.991Z,101445.19
2022-09-06T18:52:28.275Z,101432.44
2022-09-06T18:54:58.691Z,101438.53
2022-09-06T18:57:29.316Z,101437.09
2022-09-06T18:59:58.554Z,101438.88
2022-09-06T19:02:28.025Z,101432.88
2022-09-06T19:04:56.368Z,101441.75
2022-09-06T19:07:23.911Z,101437.34
2022-09-06T19:09:51.282Z,101438.56
2022-09-06T19:12:21.203Z,101435.03
2022-09-06T19:14:48.660Z,101438.56
2022-09-06T19:17:20.825Z,101446.69
2022-09-06T19:19:48.451Z,101437.31
2022-09-06T19:22:22.744Z,101441.91
2022-09-06T19:24:49.994Z,101441.09
2022-09-06T19:27:17.600Z,101446.59
2022-09-06T19:29:45.314Z,101441.56
2022-09-06T19:32:15.282Z,101448.16
2022-09-06T19:34:46.057Z,101453.88
2022-09-06T19:37:19.400Z,101451.56
2022-09-06T19:39:50.854Z,101458.03
2022-09-06T19:42:20.274Z,101459.16
2022-09-06T19:44:47.653Z,101465.72
2022-09-06T19:47:17.107Z,101456.09
2022-09-06T19:49:44.595Z,101464.00
2022-09-06T19:52:12.551Z,101463.84
2022-09-06T19:54:39.763Z,101472.00
2022-09-06T19:57:06.783Z,101473.06
2022-09-06T19:59:40.499Z,101465.34
2022-09-06T20:02:08.741Z,101465.53
2022-09-06T20:04:36.583Z,101465.56
2022-09-06T20:07:08.129Z,101464.81
2022-09-06T20:09:50.581Z,101470.16
2022-09-06T20:15:03.756Z,101472.97
2022-09-06T20:17:34.330Z,101469.41
2022-09-06T20:20:04.617Z,101472.34
2022-09-06T20:22:34.917Z,101472.66
2022-09-06T20:25:01.936Z,101475.44
2022-09-06T20:27:30.634Z,101466.53
2022-09-06T20:29:59.306Z,101472.59
2022-09-06T20:32:27.429Z,101475.19
2022-09-06T20:34:54.546Z,101476.97
2022-09-06T20:37:22.000Z,101486.75
2022-09-06T20:39:49.156Z,101478.81
2022-09-06T20:42:19.207Z,101479.91
2022-09-06T20:44:46.851Z,101484.59
2022-09-06T20:47:16.640Z,101485.94
2022-09-06T20:49:44.488Z,101480.06
2022-09-06T20:52:11.842Z,101492.81
2022-09-06T20:54:40.198Z,101493.94
2022-09-06T20:57:07.303Z,101493.34
2022-09-06T20:59:35.826Z,101490.84
2022-09-06T21:02:03.274Z,101495.50
2022-09-06T21:04:30.894Z,101501.16
2022-09-06T21:07:00.189Z,101495.91
2022-09-06T21:09:27.750Z,101503.72
2022-09-06T21:11:55.273Z,101503.88
2022-09-06T21:14:29.408Z,101498.63
2022-09-06T21:16:56.537Z,101507.44
2022-09-06T21:19:25.462Z,101507.44
2022-09-06T21:21:54.223Z,101505.75
2022-09-06T21:24:21.402Z,101507.72
2022-09-06T21:26:48.708Z,101513.09
2022-09-06T21:29:15.718Z,101517.69
2022-09-06T21:31:44.151Z,101515.41
2022-09-06T21:34:17.178Z,101523.78
2022-09-06T21:39:29.382Z,101531.38
2022-09-06T21:41:56.723Z,101528.97
2022-09-06T21:44:23.866Z,101522.22
2022-09-06T21:46:51.495Z,101530.38
2022-09-06T21:49:18.803Z,101531.44
2022-09-06T21:51:45.819Z,101533.41
2022-09-06T21:54:13.276Z,101528.31
2022-09-06T21:56:42.971Z,101536.50
2022-09-06T21:59:11.367Z,101534.06
2022-09-06T22:01:40.203Z,101535.97
2022-09-06T22:04:10.638Z,101530.88
2022-09-06T22:06:38.054Z,101535.44
2022-09-06T22:09:11.379Z,101540.94
2022-09-06T22:11:40.752Z,101542.94
2022-09-06T22:14:10.990Z,101537.88
2022-09-06T22:16:40.178Z,101544.25
2022-09-06T22:19:09.059Z,101541.97
2022-09-06T22:21:36.592Z,101547.50
2022-09-06T22:24:06.430Z,101541.56
2022-09-06T22:26:36.700Z,101542.56
2022-09-06T22:29:07.113Z,101548.09
2022-09-06T22:31:35.736Z,101550.16
2022-09-06T22:34:04.224Z,101550.44
2022-09-06T22:36:31.771Z,101549.66
2022-09-06T22:38:59.203Z,101545.28
2022-09-06T22:41:28.993Z,101542.81
2022-09-06T22:43:56.847Z,101538.53
2022-09-06T22:46:24.060Z,101546.50
2022-09-06T22:48:51.345Z,101547.50
2022-09-06T22:51:19.001Z,101542.28
2022-09-06T22:53:46.017Z,101540.63
2022-09-06T22:56:13.212Z,101540.63
2022-09-06T22:58:40.719Z,101545.09
2022-09-06T23:01:09.872Z,101538.97
2022-09-06T23:03:39.092Z,101532.00
2022-09-06T23:06:07.282Z,101540.88
2022-09-06T23:08:54.392Z,101540.09
2022-09-06T23:11:25.810Z,101535.66
2022-09-06T23:13:57.377Z,101539.28
2022-09-06T23:16:25.256Z,101538.44
2022-09-06T23:18:53.682Z,101529.72
2022-09-06T23:21:26.564Z,101526.22
2022-09-06T23:23:56.138Z,101523.69
2022-09-06T23:26:30.217Z,101521.94
2022-09-06T23:28:58.323Z,101517.59
2022-09-06T23:31:28.028Z,101524.72
2022-09-06T23:33:57.351Z,101525.59
2022-09-06T23:36:25.570Z,101523.03
2022-09-06T23:38:52.617Z,101517.78
2022-09-06T23:41:19.843Z,101514.28
2022-09-06T23:43:47.188Z,101529.28
2022-09-06T23:46:17.159Z,101524.00
2022-09-06T23:48:44.373Z,101514.28
2022-09-06T23:51:12.674Z,101520.47
2022-09-06T23:53:40.108Z,101509.06
2022-09-06T23:56:07.694Z,101519.69
2022-09-06T23:58:35.876Z,101511.84
